Time;durP1;ratioP1;P1;durP2;ratioP2;P2;SDS_P1;SDS_P2;PMS_P1;PMS_P2;Temp;Humidity;BMP_temperature;BMP_pressure;BME280_temperature;BME280_humidity;BME280_pressure;Samples;Min_cycle;Max_cycle;Signal;HPM_P1;HPM_P2
2023/08/16 00:24:54;;;;;;;5.77;3.90;;;18.80;99.90;;;;;;3190654;27;20229;-43
2023/08/16 00:27:20;;;;;;;7.10;3.83;;;18.80;99.90;;;;;;4825285;29;20220;-42
2023/08/16 00:29:50;;;;;;;6.13;3.80;;;18.70;99.90;;;;;;4825161;29;20258;-48
2023/08/16 00:32:34;;;;;;;5.87;3.60;;;18.70;98.30;;;;;;4808817;29;20188;-43
2023/08/16 00:35:06;;;;;;;7.20;3.73;;;18.70;95.90;;;;;;4810854;29;20200;-45
2023/08/16 00:37:52;;;;;;;9.63;4.00;;;18.60;99.90;;;;;;4808996;29;20301;-43
2023/08/16 00:40:22;;;;;;;6.67;3.87;;;18.60;99.10;;;;;;4808909;29;20264;-47
2023/08/16 00:43:19;;;;;;;9.20;3.93;;;18.60;98.20;;;;;;4808573;29;20220;-50
2023/08/16 00:45:52;;;;;;;10.00;3.90;;;18.50;99.90;;;;;;4827746;29;20196;-44
2023/08/16 00:48:36;;;;;;;9.13;3.97;;;18.50;97.50;;;;;;4812770;29;20668;-43
2023/08/16 00:51:16;;;;;;;9.33;3.90;;;18.50;93.20;;;;;;4828911;29;20200;-47
2023/08/16 00:53:47;;;;;;;4.60;3.87;;;18.50;91.60;;;;;;4812437;29;20192;-48
2023/08/16 00:56:19;;;;;;;5.93;3.47;;;18.40;93.50;;;;;;4797391;29;20684;-44
2023/08/16 00:58:47;;;;;;;7.90;3.97;;;18.40;89.50;;;;;;4827717;29;20711;-44
2023/08/16 01:01:16;;;;;;;5.87;3.80;;;18.40;84.10;;;;;;4828571;29;20256;-43
2023/08/16 01:03:43;;;;;;;5.87;3.57;;;18.40;77.80;;;;;;4811876;29;20677;-43
2023/08/16 01:06:13;;;;;;;7.93;4.07;;;18.40;73.60;;;;;;4811692;29;20224;-44
2023/08/16 01:08:41;;;;;;;8.23;4.00;;;18.30;73.40;;;;;;4812081;29;20269;-45
2023/08/16 01:11:49;;;;;;;5.13;3.80;;;18.30;70.90;;;;;;4811351;29;20192;-48
2023/08/16 01:14:21;;;;;;;7.33;4.07;;;18.30;67.80;;;;;;4811537;29;20198;-44
2023/08/16 01:17:12;;;;;;;4.70;3.93;;;18.30;65.30;;;;;;4829332;29;20215;-43
2023/08/16 01:20:21;;;;;;;6.80;4.10;;;18.30;66.00;;;;;;4828954;29;20531;-49
2023/08/16 01:27:08;;;;;;;5.33;3.77;;;18.20;61.80;;;;;;4828418;29;20323;-43
2023/08/16 01:30:20;;;;;;;4.20;3.57;;;18.20;55.50;;;;;;4827718;29;20211;-44
2023/08/16 01:32:47;;;;;;;6.80;3.40;;;18.20;44.50;;;;;;4799555;29;20232;-43
2023/08/16 01:42:24;;;;;;;3.77;3.00;;;18.10;36.10;;;;;;4827934;29;20224;-49
2023/08/16 01:44:51;;;;;;;6.63;3.10;;;18.10;31.00;;;;;;4827461;29;20313;-44
2023/08/16 01:47:18;;;;;;;5.57;3.63;;;18.00;28.30;;;;;;4812355;29;20212;-47
2023/08/16 01:50:19;;;;;;;5.50;3.50;;;18.00;26.90;;;;;;4827675;29;20662;-42
2023/08/16 01:53:13;;;;;;;4.50;3.20;;;17.90;23.80;;;;;;4827774;29;20253;-48
2023/08/16 01:55:39;;;;;;;7.57;3.60;;;17.90;23.30;;;;;;4823912;29;20325;-47
2023/08/16 01:58:08;;;;;;;9.53;4.07;;;17.80;24.30;;;;;;4827199;29;20222;-48
2023/08/16 02:03:56;;;;;;;5.73;3.73;;;17.70;28.40;;;;;;4826889;29;20175;-43
2023/08/16 02:06:37;;;;;;;7.83;4.07;;;17.60;30.60;;;;;;4810483;29;20715;-48
2023/08/16 02:09:25;;;;;;;5.63;3.97;;;17.60;31.70;;;;;;4810775;29;20202;-43
2023/08/16 02:11:51;;;;;;;6.37;4.03;;;17.50;35.80;;;;;;4809232;29;20278;-43
2023/08/16 02:14:17;;;;;;;9.20;4.67;;;17.50;40.70;;;;;;4795549;29;20708;-44
2023/08/16 02:17:29;;;;;;;6.13;4.37;;;17.50;46.00;;;;;;4810589;29;20269;-48
2023/08/16 02:20:31;;;;;;;6.60;4.57;;;17.40;48.70;;;;;;4811328;29;20199;-46
2023/08/16 02:23:13;;;;;;;8.30;4.77;;;17.40;52.90;;;;;;4818621;29;20295;-48
2023/08/16 02:25:49;;;;;;;7.37;4.57;;;17.40;56.00;;;;;;4811168;29;20208;-44
2023/08/16 02:28:16;;;;;;;10.00;4.53;;;17.40;59.20;;;;;;4794829;29;20279;-42
2023/08/16 02:30:42;;;;;;;8.63;4.53;;;17.40;63.80;;;;;;4826596;29;20688;-47
2023/08/16 02:36:40;;;;;;;10.90;4.60;;;17.40;72.80;;;;;;4827666;29;20235;-46
2023/08/16 02:39:38;;;;;;;7.23;3.73;;;17.40;76.20;;;;;;4795206;29;20239;-43
2023/08/16 02:42:04;;;;;;;6.10;3.63;;;17.40;70.70;;;;;;4826789;29;20219;-47
2023/08/16 02:44:30;;;;;;;5.37;3.70;;;17.30;69.90;;;;;;4826366;29;20187;-42
2023/08/16 02:49:56;;;;;;;8.17;4.00;;;17.30;65.70;;;;;;4798328;29;20223;-42
2023/08/16 02:52:22;;;;;;;10.07;4.70;;;17.30;63.70;;;;;;4809828;29;20703;-47
2023/08/16 02:54:49;;;;;;;9.80;4.60;;;17.20;66.50;;;;;;4810065;29;20219;-47
2023/08/16 02:58:02;;;;;;;7.53;4.03;;;17.20;69.40;;;;;;4809539;29;20216;-44
2023/08/16 03:00:29;;;;;;;7.43;4.20;;;17.20;70.10;;;;;;4808267;29;20200;-47
2023/08/16 03:02:55;;;;;;;5.60;4.20;;;17.20;70.20;;;;;;4824924;29;20243;-46
2023/08/16 03:05:21;;;;;;;7.63;4.70;;;17.20;69.80;;;;;;4808454;29;20617;-47
2023/08/16 03:07:48;;;;;;;7.13;4.10;;;17.20;73.70;;;;;;4808227;29;20212;-47
2023/08/16 03:10:13;;;;;;;6.00;4.10;;;17.20;84.10;;;;;;4808405;29;20769;-46
2023/08/16 03:12:40;;;;;;;6.73;4.00;;;17.10;86.60;;;;;;4824971;29;20192;-46
2023/08/16 03:15:06;;;;;;;9.07;4.50;;;17.20;88.20;;;;;;4808366;29;20279;-47
2023/08/16 03:17:34;;;;;;;9.40;4.73;;;17.20;91.20;;;;;;4793476;29;20239;-47
2023/08/16 03:20:00;;;;;;;9.27;5.30;;;17.20;91.30;;;;;;4808443;29;20256;-46
2023/08/16 03:22:25;;;;;;;8.97;4.67;;;17.20;92.50;;;;;;4808381;29;20646;-46
2023/08/16 03:24:51;;;;;;;7.80;5.57;;;17.20;95.00;;;;;;4808514;29;20192;-46
2023/08/16 03:27:17;;;;;;;9.30;5.10;;;17.20;99.90;;;;;;4824702;29;20235;-47
2023/08/16 03:29:43;;;;;;;11.50;5.23;;;17.30;99.90;;;;;;4825173;29;20192;-46
2023/08/16 03:32:08;;;;;;;7.83;5.37;;;17.30;99.90;;;;;;4824685;29;20196;-47
2023/08/16 03:34:34;;;;;;;8.87;5.07;;;17.30;99.90;;;;;;4824830;29;20199;-47
2023/08/16 03:37:00;;;;;;;7.73;4.90;;;17.40;99.90;;;;;;4825252;29;20220;-46
2023/08/16 03:39:26;;;;;;;8.63;4.73;;;17.40;99.90;;;;;;4808795;29;20218;-47
2023/08/16 03:41:52;;;;;;;8.97;5.17;;;17.40;99.90;;;;;;4808229;29;20353;-47
2023/08/16 03:44:18;;;;;;;7.83;5.00;;;17.40;99.90;;;;;;4824579;29;20214;-47
2023/08/16 03:46:44;;;;;;;8.77;4.37;;;17.40;99.90;;;;;;4808255;29;20220;-46
2023/08/16 03:49:09;;;;;;;8.37;5.13;;;17.50;99.90;;;;;;4809254;29;20221;-47
2023/08/16 03:51:35;;;;;;;11.73;5.07;;;17.50;99.90;;;;;;4824994;29;20258;-46
2023/08/16 03:54:01;;;;;;;10.23;5.10;;;17.50;99.90;;;;;;4808026;29;20227;-47
2023/08/16 03:56:27;;;;;;;6.63;4.53;;;17.60;99.90;;;;;;4808041;29;20231;-46
2023/08/16 03:58:53;;;;;;;6.77;4.30;;;17.60;99.90;;;;;;4808213;29;20227;-47
2023/08/16 04:01:19;;;;;;;7.37;4.47;;;17.60;99.90;;;;;;4824685;29;20590;-46
2023/08/16 04:03:46;;;;;;;8.67;5.23;;;17.60;99.90;;;;;;4808012;29;20271;-46
2023/08/16 04:06:12;;;;;;;9.63;4.90;;;17.60;99.90;;;;;;4807897;29;20216;-47
2023/08/16 04:08:38;;;;;;;9.63;5.33;;;17.70;99.90;;;;;;4808044;29;20225;-46
2023/08/16 04:11:05;;;;;;;8.47;4.77;;;17.70;99.90;;;;;;4824371;29;20303;-47
2023/08/16 04:13:31;;;;;;;7.10;4.80;;;17.70;99.90;;;;;;4825174;29;20264;-47
2023/08/16 04:15:57;;;;;;;6.23;4.23;;;17.70;99.90;;;;;;4824524;29;20197;-47
2023/08/16 04:18:23;;;;;;;9.03;4.37;;;17.60;99.90;;;;;;4824259;29;20196;-46
2023/08/16 04:20:49;;;;;;;9.70;4.80;;;17.70;99.90;;;;;;4811201;29;20680;-46
2023/08/16 04:23:14;;;;;;;9.33;4.37;;;17.70;99.90;;;;;;4811340;29;20223;-48
2023/08/16 04:25:40;;;;;;;8.90;4.27;;;17.70;99.90;;;;;;4811148;29;20662;-47
2023/08/16 04:28:06;;;;;;;6.33;4.10;;;17.60;99.90;;;;;;4827715;29;20191;-48
2023/08/16 04:30:33;;;;;;;5.17;4.00;;;17.70;99.90;;;;;;4811160;29;20196;-47
2023/08/16 04:32:58;;;;;;;7.57;4.20;;;17.70;99.90;;;;;;4827920;29;20185;-47
2023/08/16 04:35:24;;;;;;;11.67;4.40;;;17.70;99.90;;;;;;4811218;29;20670;-47
2023/08/16 04:37:49;;;;;;;9.00;4.63;;;17.60;99.90;;;;;;4811044;29;20272;-47
2023/08/16 04:40:15;;;;;;;10.50;4.50;;;17.60;99.90;;;;;;4827940;29;20173;-47
2023/08/16 04:42:42;;;;;;;7.93;4.03;;;17.70;99.90;;;;;;4811455;29;20216;-47
2023/08/16 05:03:21;;;;;;;9.40;5.03;;;17.70;99.90;;;;;;4828214;29;20219;-43
2023/08/16 05:06:18;;;;;;;9.60;4.97;;;17.70;99.90;;;;;;4810349;29;20626;-43
2023/08/16 05:08:47;;;;;;;11.20;5.40;;;17.80;99.90;;;;;;4827118;29;20176;-41
2023/08/16 05:11:14;;;;;;;7.23;5.03;;;17.80;99.90;;;;;;4810912;29;20203;-43
2023/08/16 05:13:42;;;;;;;8.30;5.03;;;17.80;99.90;;;;;;4810848;29;20188;-43
2023/08/16 05:16:09;;;;;;;8.37;5.20;;;17.80;99.90;;;;;;4810951;29;20218;-42
2023/08/16 05:18:35;;;;;;;13.90;5.30;;;17.80;99.90;;;;;;4811024;29;20654;-44
2023/08/16 05:21:02;;;;;;;8.00;5.67;;;17.80;99.90;;;;;;4826653;29;20188;-43
2023/08/16 05:23:29;;;;;;;7.93;5.37;;;17.80;99.90;;;;;;4826784;29;20655;-43
2023/08/16 05:30:07;;;;;;;9.73;4.93;;;17.90;99.90;;;;;;4771938;30;20189;-42
2023/08/16 05:32:33;;;;;;;9.77;6.00;;;17.90;99.90;;;;;;4772934;29;20196;-42
2023/08/16 05:34:59;;;;;;;8.57;5.27;;;17.90;99.90;;;;;;4795347;29;20196;-41
2023/08/16 05:37:25;;;;;;;12.17;5.70;;;17.90;99.90;;;;;;4810795;29;20216;-41
2023/08/16 05:39:51;;;;;;;10.30;6.07;;;17.90;99.90;;;;;;4811457;29;20188;-42
2023/08/16 05:42:18;;;;;;;8.83;5.50;;;17.90;99.90;;;;;;4810079;29;20716;-44
2023/08/16 05:44:44;;;;;;;8.30;5.77;;;18.00;99.90;;;;;;4810213;29;20567;-44
2023/08/16 05:48:06;;;;;;;8.23;5.53;;;18.10;99.90;;;;;;4812395;29;20736;-48
2023/08/16 05:53:54;;;;;;;13.77;6.07;;;18.30;99.90;;;;;;4827151;29;20184;-45
2023/08/16 05:56:19;;;;;;;11.67;6.40;;;18.30;99.90;;;;;;4810436;29;20220;-43
2023/08/16 05:58:45;;;;;;;9.90;6.23;;;18.40;99.90;;;;;;4810935;29;20189;-47
2023/08/16 06:01:11;;;;;;;9.00;6.30;;;18.50;99.90;;;;;;4827004;29;20184;-46
2023/08/16 06:03:46;;;;;;;10.07;5.87;;;18.60;99.90;;;;;;4827451;29;20231;-47
2023/08/16 06:06:11;;;;;;;13.63;6.80;;;18.60;99.90;;;;;;4826840;29;20218;-45
2023/08/16 06:08:37;;;;;;;11.67;6.30;;;18.70;99.90;;;;;;4826959;29;20271;-43
2023/08/16 06:11:04;;;;;;;14.07;6.17;;;18.80;99.90;;;;;;4810203;29;20235;-43
2023/08/16 06:13:30;;;;;;;8.97;6.00;;;18.90;99.90;;;;;;4826630;29;20249;-46
2023/08/16 06:15:56;;;;;;;13.33;6.63;;;18.90;99.90;;;;;;4826945;29;20588;-44
2023/08/16 06:18:22;;;;;;;12.77;6.40;;;18.90;99.90;;;;;;4826818;29;20271;-45
2023/08/16 06:20:54;;;;;;;12.63;6.57;;;18.90;99.90;;;;;;4826844;29;20690;-48
2023/08/16 06:23:20;;;;;;;15.03;6.17;;;19.00;99.90;;;;;;4809934;29;20288;-43
2023/08/16 06:25:46;;;;;;;10.67;6.40;;;19.00;99.90;;;;;;4826550;29;20184;-43
2023/08/16 06:28:12;;;;;;;8.43;6.27;;;19.10;99.90;;;;;;4826984;29;20192;-43
2023/08/16 06:31:09;;;;;;;12.77;6.37;;;19.10;99.90;;;;;;4809864;29;20723;-46
2023/08/16 06:33:53;;;;;;;8.90;5.63;;;19.20;99.90;;;;;;4810050;29;20703;-49
2023/08/16 06:36:36;;;;;;;11.23;6.20;;;19.30;99.90;;;;;;4810084;29;20215;-46
2023/08/16 06:39:18;;;;;;;8.37;5.53;;;19.30;99.90;;;;;;4826210;29;20216;-44
2023/08/16 06:41:44;;;;;;;8.53;5.97;;;19.40;99.90;;;;;;4781933;29;20220;-41
2023/08/16 06:44:16;;;;;;;8.30;5.77;;;19.40;99.90;;;;;;4809781;29;20220;-48
2023/08/16 06:47:02;;;;;;;9.10;5.60;;;19.50;99.90;;;;;;4811513;29;20311;-43
2023/08/16 06:49:51;;;;;;;9.43;6.10;;;19.50;99.90;;;;;;4826287;29;20176;-47
2023/08/16 06:52:18;;;;;;;10.43;6.33;;;19.50;99.90;;;;;;4809732;29;20196;-42
2023/08/16 06:54:50;;;;;;;8.10;6.60;;;19.50;99.90;;;;;;4825896;29;20697;-43
2023/08/16 06:57:16;;;;;;;6.60;5.90;;;19.50;99.90;;;;;;4809281;29;20622;-47
2023/08/16 06:59:43;;;;;;;13.37;6.47;;;19.50;99.90;;;;;;4826305;29;20209;-42
2023/08/16 07:02:13;;;;;;;9.60;6.37;;;19.50;99.90;;;;;;4809201;29;20227;-47
2023/08/16 07:04:39;;;;;;;12.37;6.00;;;19.60;99.90;;;;;;4826381;29;20606;-47
2023/08/16 07:07:05;;;;;;;11.97;6.07;;;19.60;99.90;;;;;;4826002;29;20291;-45
2023/08/16 07:09:31;;;;;;;7.30;5.40;;;19.70;99.90;;;;;;4826183;29;20203;-42
2023/08/16 07:11:57;;;;;;;10.47;5.47;;;19.80;99.90;;;;;;4825978;29;20196;-43
2023/08/16 07:14:45;;;;;;;9.13;4.90;;;19.90;99.90;;;;;;4826607;29;20200;-48
2023/08/16 07:17:11;;;;;;;12.43;5.30;;;20.10;99.90;;;;;;4809662;29;20252;-44
2023/08/16 07:19:37;;;;;;;12.10;5.93;;;20.20;99.90;;;;;;4809769;29;20254;-47
2023/08/16 07:22:02;;;;;;;12.00;5.80;;;20.30;99.90;;;;;;4809291;29;20231;-47
2023/08/16 07:24:28;;;;;;;12.33;5.67;;;20.40;95.80;;;;;;4826577;29;20184;-44
2023/08/16 07:26:54;;;;;;;13.53;5.60;;;20.50;93.90;;;;;;4825749;29;20693;-47
2023/08/16 07:29:20;;;;;;;8.57;5.50;;;20.50;91.50;;;;;;4809594;29;20192;-43
2023/08/16 07:36:07;;;;;;;20.87;6.23;;;20.60;87.10;;;;;;4826041;29;20704;-44
2023/08/16 07:38:50;;;;;;;8.03;4.97;;;20.70;85.10;;;;;;4826265;29;20192;-47
2023/08/16 07:41:32;;;;;;;7.70;5.53;;;20.70;75.60;;;;;;4808254;29;20209;-49
2023/08/16 08:49:57;;;;;;;13.83;10.20;;;21.30;61.80;;;;;;4140629;27;20224;-48
2023/08/16 08:52:24;;;;;;;14.47;10.17;;;21.40;59.50;;;;;;4825929;29;20299;-49
2023/08/16 08:54:49;;;;;;;13.07;10.03;;;21.40;56.10;;;;;;4810783;29;20341;-49
2023/08/16 08:57:18;;;;;;;15.30;10.80;;;21.50;56.30;;;;;;4827181;29;20265;-48
2023/08/16 08:59:49;;;;;;;14.67;10.23;;;21.60;51.90;;;;;;4811103;29;20207;-46
2023/08/16 09:02:20;;;;;;;13.13;9.83;;;21.60;51.30;;;;;;4827095;29;20557;-48
2023/08/16 09:04:50;;;;;;;13.23;10.90;;;21.70;51.50;;;;;;4810103;29;20287;-47
2023/08/16 09:07:17;;;;;;;12.87;10.37;;;21.80;42.20;;;;;;4827122;29;20228;-48
2023/08/16 09:09:48;;;;;;;12.27;10.63;;;21.70;38.70;;;;;;4810791;29;20200;-48
2023/08/16 09:12:15;;;;;;;18.37;11.43;;;21.70;40.50;;;;;;4810642;29;20254;-47
2023/08/16 09:14:41;;;;;;;13.53;10.67;;;21.60;45.10;;;;;;4795417;29;20222;-49
2023/08/16 09:17:07;;;;;;;15.70;10.20;;;21.60;48.10;;;;;;4810666;29;20246;-48
2023/08/16 09:19:33;;;;;;;12.37;10.83;;;21.60;50.40;;;;;;4810578;29;20672;-48
2023/08/16 09:21:59;;;;;;;15.63;10.43;;;21.70;46.00;;;;;;4826746;29;20220;-47
2023/08/16 09:24:25;;;;;;;13.43;12.00;;;21.70;44.80;;;;;;4826863;29;20264;-47
2023/08/16 09:26:52;;;;;;;15.17;11.07;;;21.70;46.80;;;;;;4826622;29;20631;-47
2023/08/16 09:29:19;;;;;;;15.83;11.23;;;21.60;45.50;;;;;;4810296;29;20206;-50
2023/08/16 09:31:46;;;;;;;18.03;11.37;;;21.60;46.00;;;;;;4810228;29;20287;-48
2023/08/16 09:34:13;;;;;;;12.43;11.10;;;21.60;47.70;;;;;;4826870;29;20710;-48
2023/08/16 09:46:58;;;;;;;13.93;12.40;;;21.40;83.40;;;;;;4827412;29;20236;-43
2023/08/16 09:49:38;;;;;;;17.73;14.30;;;21.30;90.90;;;;;;4810188;29;20246;-44
2023/08/16 09:52:20;;;;;;;15.03;13.53;;;21.30;92.60;;;;;;4810039;29;20228;-44
2023/08/16 09:55:00;;;;;;;14.73;13.17;;;21.20;97.70;;;;;;4826233;29;20177;-44
2023/08/16 09:57:33;;;;;;;15.20;12.60;;;21.20;98.90;;;;;;4795907;29;20243;-43
2023/08/16 10:00:06;;;;;;;17.33;12.13;;;21.20;99.30;;;;;;4810010;29;20196;-45
2023/08/16 10:02:34;;;;;;;17.33;12.67;;;21.20;99.90;;;;;;4826248;29;20212;-44
2023/08/16 10:05:05;;;;;;;14.10;12.60;;;21.20;99.60;;;;;;4809571;29;20235;-45
2023/08/16 10:07:37;;;;;;;16.97;12.80;;;21.30;97.40;;;;;;4825803;29;20220;-44
2023/08/16 10:10:11;;;;;;;16.13;13.63;;;21.30;99.00;;;;;;4795186;29;20279;-44
2023/08/16 10:12:43;;;;;;;16.17;12.30;;;21.40;99.90;;;;;;4794701;29;20622;-43
2023/08/16 10:15:16;;;;;;;15.53;12.07;;;21.40;99.90;;;;;;4795500;29;20188;-44
2023/08/16 10:17:49;;;;;;;14.27;11.83;;;21.50;99.90;;;;;;4824923;29;20239;-44
2023/08/16 10:23:40;;;;;;;24.43;10.50;;;21.60;99.90;;;;;;4826892;29;20215;-48
2023/08/16 10:29:35;;;;;;;11.87;8.83;;;22.00;97.80;;;;;;4827151;29;20172;-49
2023/08/16 10:32:07;;;;;;;13.93;9.70;;;22.20;92.30;;;;;;4810438;29;20603;-48
2023/08/16 10:34:55;;;;;;;10.40;8.93;;;22.20;73.00;;;;;;4827213;29;20181;-43
2023/08/16 10:40:42;;;;;;;10.20;9.20;;;22.30;73.50;;;;;;4826798;29;20183;-48
2023/08/16 10:46:36;;;;;;;11.03;9.27;;;22.70;76.20;;;;;;4827487;29;20239;-44
2023/08/16 10:49:11;;;;;;;11.37;8.93;;;22.90;56.40;;;;;;4809813;29;20255;-44
2023/08/16 10:52:03;;;;;;;12.80;10.17;;;22.90;51.20;;;;;;4809447;29;20609;-51
2023/08/16 10:54:38;;;;;;;12.00;10.50;;;23.00;37.50;;;;;;4825538;29;20193;-46
2023/08/16 10:57:12;;;;;;;16.90;11.27;;;23.20;28.50;;;;;;4825711;29;20222;-47
2023/08/16 11:00:16;;;;;;;13.27;9.80;;;23.30;21.40;;;;;;4809380;29;20200;-43
2023/08/16 11:02:45;;;;;;;13.73;10.60;;;23.30;23.10;;;;;;4798199;29;20231;-43
2023/08/16 11:05:24;;;;;;;14.83;10.93;;;23.40;9.40;;;;;;4808857;29;20200;-51
2023/08/16 11:14:53;;;;;;;17.23;12.73;;;23.50;8.50;;;;;;4778200;29;20284;-44
2023/08/16 11:18:06;;;;;;;12.33;10.33;;;23.60;7.20;;;;;;4808076;29;20247;-45
2023/08/16 11:20:50;;;;;;;17.60;12.63;;;23.60;14.30;;;;;;4808781;29;20208;-44
2023/08/16 11:23:16;;;;;;;14.87;11.50;;;23.70;11.00;;;;;;4824502;29;20680;-50
2023/08/16 11:25:44;;;;;;;15.90;11.73;;;23.70;12.50;;;;;;4824163;29;20215;-43
2023/08/16 11:28:22;;;;;;;16.20;12.20;;;23.90;14.80;;;;;;4807875;29;20197;-51
2023/08/16 11:34:13;;;;;;;12.60;10.60;;;24.10;1.00;;;;;;4825144;29;20183;-45
2023/08/16 11:36:44;;;;;;;15.23;11.23;;;24.10;1.00;;;;;;4808897;29;20838;-44
2023/08/16 11:39:27;;;;;;;14.00;10.73;;;24.10;1.00;;;;;;4794664;29;20325;-43
2023/08/16 11:41:54;;;;;;;13.57;10.60;;;24.20;1.00;;;;;;4809577;29;20224;-46
2023/08/16 11:47:53;;;;;;;11.20;8.77;;;24.20;1.00;;;;;;4826199;29;20230;-45
2023/08/16 11:51:21;;;;;;;11.27;8.53;;;24.20;1.00;;;;;;4760001;29;1469439;-43
2023/08/16 11:54:01;;;;;;;12.67;8.90;;;24.30;1.00;;;;;;4751786;30;20206;-46
2023/08/16 11:59:37;;;;;;;12.10;7.17;;;24.30;1.00;;;;;;4826068;29;20325;-44
2023/08/16 12:02:07;;;;;;;9.73;7.90;;;24.30;1.00;;;;;;4824912;29;20303;-44
2023/08/16 12:04:32;;;;;;;10.07;7.90;;;24.30;1.00;;;;;;4793003;29;20653;-46
2023/08/16 12:06:59;;;;;;;8.70;7.70;;;24.20;1.00;;;;;;4808069;29;20216;-44
2023/08/16 12:09:25;;;;;;;11.97;8.33;;;24.20;1.00;;;;;;4808109;29;20204;-44
2023/08/16 12:11:51;;;;;;;10.77;8.73;;;24.10;1.00;;;;;;4824934;29;20254;-44
2023/08/16 12:14:20;;;;;;;11.83;9.03;;;24.10;1.00;;;;;;4824672;29;20200;-43
2023/08/16 12:16:45;;;;;;;11.17;9.13;;;24.10;1.00;;;;;;4824393;29;20288;-45
2023/08/16 12:19:18;;;;;;;9.67;8.27;;;24.10;1.00;;;;;;4824450;29;20261;-45
2023/08/16 12:21:44;;;;;;;12.27;8.23;;;24.20;1.00;;;;;;4824869;29;20238;-45
2023/08/16 12:24:10;;;;;;;11.30;8.03;;;24.30;1.00;;;;;;4824394;29;20690;-45
2023/08/16 12:26:39;;;;;;;12.90;9.17;;;24.40;1.00;;;;;;4824557;29;20236;-44
2023/08/16 12:29:05;;;;;;;11.47;8.37;;;24.50;1.00;;;;;;4807960;29;20215;-45
2023/08/16 12:31:31;;;;;;;10.40;8.70;;;24.50;1.00;;;;;;4824612;29;20188;-44
2023/08/16 12:33:58;;;;;;;11.80;7.90;;;24.60;1.00;;;;;;4824516;29;20623;-45
2023/08/16 12:36:32;;;;;;;10.03;7.77;;;24.50;1.00;;;;;;4808129;29;20303;-44
2023/08/16 12:39:00;;;;;;;9.33;7.20;;;24.50;1.00;;;;;;4808895;29;20188;-45
2023/08/16 12:41:26;;;;;;;12.63;8.00;;;24.50;1.00;;;;;;4811093;29;20191;-45
2023/08/16 12:43:52;;;;;;;10.77;8.80;;;24.60;1.00;;;;;;4827454;29;20220;-44
2023/08/16 12:46:18;;;;;;;11.27;7.30;;;24.60;1.00;;;;;;4827376;29;20208;-46
2023/08/16 12:48:45;;;;;;;9.10;6.83;;;24.70;1.00;;;;;;4811299;29;20200;-43
2023/08/16 12:51:11;;;;;;;8.90;7.37;;;24.60;99.90;;;;;;4811093;29;20208;-45
2023/08/16 12:53:38;;;;;;;9.60;7.30;;;24.60;99.90;;;;;;4827578;29;20528;-44
2023/08/16 12:56:06;;;;;;;11.53;7.37;;;24.70;99.90;;;;;;4810826;29;20220;-45
2023/08/16 12:58:32;;;;;;;7.57;5.87;;;24.80;99.90;;;;;;4827368;29;20287;-44
2023/08/16 13:01:01;;;;;;;7.50;6.30;;;25.00;99.90;;;;;;4810824;29;20283;-44
2023/08/16 13:03:28;;;;;;;12.00;7.47;;;25.10;99.90;;;;;;4827130;29;20587;-45
2023/08/16 13:05:54;;;;;;;9.23;6.50;;;25.10;99.90;;;;;;4810757;29;20193;-44
2023/08/16 13:08:21;;;;;;;7.27;6.00;;;25.10;99.90;;;;;;4827099;29;20189;-45
2023/08/16 13:10:47;;;;;;;8.50;6.93;;;25.10;99.90;;;;;;4827460;29;20638;-45
2023/08/16 13:13:13;;;;;;;7.10;6.17;;;25.20;99.90;;;;;;4810831;29;20204;-45
2023/08/16 13:15:42;;;;;;;8.57;6.33;;;25.30;99.90;;;;;;4826971;29;20555;-47
2023/08/16 13:18:09;;;;;;;10.47;6.77;;;25.20;99.90;;;;;;4810749;29;20575;-44
2023/08/16 13:20:35;;;;;;;8.90;5.93;;;25.20;99.90;;;;;;4810707;29;20196;-45
2023/08/16 13:23:00;;;;;;;10.57;6.33;;;25.10;99.90;;;;;;4826627;29;20223;-44
2023/08/16 13:25:27;;;;;;;11.50;7.00;;;25.10;99.90;;;;;;4810406;29;20684;-45
2023/08/16 13:27:53;;;;;;;12.13;5.70;;;25.20;99.90;;;;;;4810653;29;20232;-45
2023/08/16 13:30:19;;;;;;;10.73;7.33;;;25.30;99.90;;;;;;4827038;29;20262;-45
2023/08/16 13:32:45;;;;;;;9.30;7.83;;;25.30;99.90;;;;;;4810297;29;20215;-45
2023/08/16 13:35:11;;;;;;;17.20;7.33;;;25.40;99.90;;;;;;4826785;29;20224;-45
2023/08/16 13:37:46;;;;;;;12.53;7.10;;;25.40;99.90;;;;;;4826569;29;20216;-45
2023/08/16 13:40:13;;;;;;;12.13;7.73;;;25.40;99.90;;;;;;4810382;29;20227;-45
2023/08/16 13:43:09;;;;;;;9.07;7.00;;;25.40;99.90;;;;;;4826524;29;20276;-45
2023/08/16 13:45:51;;;;;;;13.00;8.23;;;25.30;99.90;;;;;;4825248;29;20539;-44
2023/08/16 13:48:59;;;;;;;12.30;8.23;;;25.20;99.90;;;;;;4827181;29;20192;-45
2023/08/16 13:52:21;;;;;;;9.37;7.90;;;25.10;99.90;;;;;;4793027;29;20209;-45
2023/08/16 13:55:03;;;;;;;10.10;7.47;;;25.20;99.90;;;;;;4801973;29;20689;-46
2023/08/16 13:57:29;;;;;;;10.63;6.97;;;25.30;99.90;;;;;;4791687;29;20213;-45
2023/08/16 13:59:57;;;;;;;11.23;7.87;;;25.30;99.90;;;;;;4809253;29;20192;-45
2023/08/16 14:02:23;;;;;;;9.47;7.50;;;25.40;99.90;;;;;;4791565;29;20273;-45
2023/08/16 14:04:50;;;;;;;12.90;7.53;;;25.50;99.90;;;;;;4808139;29;20204;-44
2023/08/16 14:07:55;;;;;;;9.20;7.03;;;25.50;99.90;;;;;;4808559;29;20208;-46
2023/08/16 14:10:32;;;;;;;8.93;6.80;;;25.50;99.90;;;;;;4794904;29;20250;-44
2023/08/16 14:13:27;;;;;;;10.20;8.17;;;25.50;99.90;;;;;;4807830;29;20235;-45
2023/08/16 14:16:17;;;;;;;10.60;7.77;;;25.50;99.90;;;;;;4791705;29;20205;-46
2023/08/16 14:18:50;;;;;;;13.73;9.07;;;25.40;99.90;;;;;;4808548;29;20629;-47
2023/08/16 14:21:21;;;;;;;12.27;8.97;;;25.30;99.90;;;;;;4777068;29;20197;-45
2023/08/16 14:23:56;;;;;;;11.07;8.73;;;25.20;99.90;;;;;;4791824;29;20269;-46
2023/08/16 14:26:22;;;;;;;14.13;10.57;;;25.20;99.90;;;;;;4777778;29;20269;-45
2023/08/16 14:29:16;;;;;;;11.17;8.90;;;25.00;99.90;;;;;;4808014;29;20189;-45
2023/08/16 14:31:43;;;;;;;13.20;9.87;;;25.00;99.90;;;;;;4791375;29;20254;-47
2023/08/16 14:34:09;;;;;;;12.73;9.13;;;24.90;99.90;;;;;;4791380;29;20639;-45
2023/08/16 14:37:19;;;;;;;11.30;8.20;;;24.90;99.90;;;;;;4792234;29;20209;-45
2023/08/16 14:39:58;;;;;;;10.50;7.63;;;24.80;99.90;;;;;;4792221;29;20225;-45
2023/08/16 14:42:43;;;;;;;8.77;7.23;;;24.80;99.90;;;;;;4793327;29;20208;-46
2023/08/16 14:45:10;;;;;;;13.00;8.03;;;24.70;99.90;;;;;;4791269;29;20192;-46
2023/08/16 14:47:35;;;;;;;11.20;9.00;;;24.70;99.90;;;;;;4793023;29;20264;-45
2023/08/16 14:50:06;;;;;;;11.57;8.50;;;24.80;99.90;;;;;;4815257;29;20211;-44
2023/08/16 14:52:57;;;;;;;10.83;7.77;;;24.90;99.90;;;;;;4825436;29;20209;-46
2023/08/16 14:55:25;;;;;;;12.53;8.40;;;25.00;99.90;;;;;;4794322;29;20200;-45
2023/08/16 14:58:08;;;;;;;9.70;7.70;;;25.10;99.90;;;;;;4808988;29;20268;-45
2023/08/16 15:00:38;;;;;;;11.53;7.80;;;25.20;99.90;;;;;;4825431;29;20207;-45
2023/08/16 15:03:08;;;;;;;9.60;8.20;;;25.20;99.90;;;;;;4825105;29;20231;-44
2023/08/16 15:05:35;;;;;;;9.87;7.07;;;25.30;99.90;;;;;;4809348;29;20271;-44
2023/08/16 15:08:36;;;;;;;12.67;8.80;;;25.30;99.90;;;;;;4794056;29;20213;-44
2023/08/16 15:11:15;;;;;;;12.93;8.57;;;25.30;99.90;;;;;;4796352;29;20194;-44
2023/08/16 15:13:58;;;;;;;10.37;8.23;;;25.20;99.90;;;;;;4825217;29;20212;-45
2023/08/16 15:17:08;;;;;;;9.87;8.10;;;25.10;99.90;;;;;;4794856;29;20220;-43
2023/08/16 15:19:46;;;;;;;10.23;7.80;;;25.10;99.90;;;;;;4810782;29;20200;-45
2023/08/16 15:22:36;;;;;;;13.00;7.97;;;25.00;99.90;;;;;;4794761;29;20216;-44
2023/08/16 15:25:31;;;;;;;9.90;7.97;;;24.90;99.90;;;;;;4808884;29;20699;-46
2023/08/16 15:28:05;;;;;;;13.20;7.33;;;24.90;99.90;;;;;;4809954;29;20212;-44
2023/08/16 15:30:44;;;;;;;11.47;9.27;;;24.80;99.90;;;;;;4809199;29;20189;-45
2023/08/16 15:36:34;;;;;;;9.70;7.67;;;24.70;99.90;;;;;;4825077;29;20208;-43
2023/08/16 15:39:01;;;;;;;10.23;8.23;;;24.60;99.90;;;;;;4808312;29;20207;-46
2023/08/16 15:41:30;;;;;;;9.60;7.97;;;24.50;99.90;;;;;;4809014;29;20200;-45
2023/08/16 15:43:57;;;;;;;9.37;8.00;;;24.40;99.90;;;;;;4808557;29;20220;-53
2023/08/16 15:46:23;;;;;;;10.43;7.97;;;24.40;99.90;;;;;;4825371;29;20264;-53
2023/08/16 15:48:49;;;;;;;9.60;8.57;;;24.40;99.90;;;;;;4825595;29;20636;-44
2023/08/16 15:51:22;;;;;;;9.97;8.23;;;24.40;99.90;;;;;;4808782;29;20211;-44
2023/08/16 15:53:49;;;;;;;9.30;7.63;;;24.50;99.90;;;;;;4794669;29;20185;-53
2023/08/16 15:56:16;;;;;;;11.40;8.10;;;24.50;99.90;;;;;;4793809;29;20700;-45
2023/08/16 15:58:43;;;;;;;11.67;7.80;;;24.50;99.90;;;;;;4824741;29;20271;-47
2023/08/16 16:01:09;;;;;;;10.60;8.30;;;24.50;99.90;;;;;;4824400;29;20203;-45
2023/08/16 16:03:36;;;;;;;9.60;8.13;;;24.50;99.90;;;;;;4824498;29;20220;-45
2023/08/16 16:06:02;;;;;;;8.97;7.33;;;24.40;99.90;;;;;;4824298;29;20208;-45
2023/08/16 16:08:31;;;;;;;9.53;7.13;;;24.40;99.90;;;;;;4824899;29;20188;-45
2023/08/16 16:10:59;;;;;;;11.53;7.50;;;24.40;99.90;;;;;;4807980;29;20196;-44
2023/08/16 16:13:25;;;;;;;8.17;6.83;;;24.40;99.90;;;;;;4824263;29;20223;-44